createdAt,value
2017-05-11T00:00:47.887Z,10.60
2017-05-11T00:03:14.847Z,10.50
2017-05-11T00:05:41.821Z,10.40
2017-05-11T00:08:08.816Z,10.30
2017-05-11T00:10:35.752Z,10.20
2017-05-11T00:13:02.732Z,10.20
2017-05-11T00:15:29.654Z,10.20
2017-05-11T00:17:56.583Z,10.20
2017-05-11T00:20:23.531Z,10.20
2017-05-11T00:22:50.456Z,10.10
2017-05-11T00:25:18.133Z,10.10
2017-05-11T00:27:45.073Z,10.10
2017-05-11T00:30:12.004Z,10.10
2017-05-11T00:32:39.704Z,10.10
2017-05-11T00:35:06.611Z,10.10
2017-05-11T00:37:34.259Z,10.00
2017-05-11T00:40:01.217Z,10.10
2017-05-11T00:42:28.879Z,10.10
2017-05-11T00:44:56.536Z,10.20
2017-05-11T00:47:23.504Z,10.20
2017-05-11T00:49:50.415Z,10.20
2017-05-11T00:52:17.335Z,10.10
2017-05-11T00:54:44.296Z,10.10
2017-05-11T00:57:11.233Z,10.10
2017-05-11T00:59:38.161Z,10.10
2017-05-11T01:02:05.116Z,10.10
2017-05-11T01:04:32.115Z,10.10
2017-05-11T01:06:59.833Z,10.00
2017-05-11T01:09:26.821Z,10.10
2017-05-11T01:11:53.748Z,10.10
2017-05-11T01:14:20.765Z,10.00
2017-05-11T01:16:47.724Z,10.10
2017-05-11T01:19:14.659Z,10.10
2017-05-11T01:21:41.579Z,10.10
2017-05-11T01:24:08.536Z,10.10
2017-05-11T01:26:35.454Z,10.00
2017-05-11T01:29:02.384Z,10.00
2017-05-11T01:31:29.365Z,10.00
2017-05-11T01:33:56.299Z,10.00
2017-05-11T01:36:23.243Z,9.90
2017-05-11T01:38:50.272Z,10.00
2017-05-11T01:41:17.218Z,10.00
2017-05-11T01:43:44.170Z,9.90
2017-05-11T01:46:11.156Z,9.80
2017-05-11T01:48:38.133Z,9.90
2017-05-11T01:51:05.050Z,9.80
2017-05-11T01:53:32.019Z,9.80
2017-05-11T01:55:59.676Z,9.80
2017-05-11T01:58:27.356Z,9.70
2017-05-11T02:00:54.308Z,9.60
2017-05-11T02:03:21.296Z,9.60
2017-05-11T02:05:48.240Z,9.60
2017-05-11T02:08:15.180Z,9.50
2017-05-11T02:10:42.132Z,9.50
2017-05-11T02:13:09.848Z,9.50
2017-05-11T02:15:36.837Z,9.40
2017-05-11T02:18:03.816Z,9.40
2017-05-11T02:20:31.480Z,9.40
2017-05-11T02:22:59.140Z,9.30
2017-05-11T02:25:26.077Z,9.20
2017-05-11T02:27:53.033Z,9.20
2017-05-11T02:30:20.692Z,9.20
2017-05-11T02:32:48.349Z,9.20
2017-05-11T02:35:15.295Z,9.20
2017-05-11T02:37:42.273Z,9.10
2017-05-11T02:40:09.241Z,9.20
2017-05-11T02:42:36.174Z,9.20
2017-05-11T02:45:03.092Z,9.20
2017-05-11T02:47:30.046Z,9.20
2017-05-11T02:49:56.996Z,8.90
2017-05-11T02:52:23.924Z,8.70
2017-05-11T02:54:50.877Z,8.70
2017-05-11T02:57:17.789Z,8.70
2017-05-11T02:59:44.721Z,8.60
2017-05-11T03:02:11.701Z,8.70
2017-05-11T03:04:38.691Z,8.70
2017-05-11T03:07:05.616Z,8.80
2017-05-11T03:09:32.567Z,8.80
2017-05-11T03:11:59.491Z,8.80
2017-05-11T03:14:26.421Z,8.80
2017-05-11T03:16:54.114Z,8.60
2017-05-11T03:19:21.035Z,8.50
2017-05-11T03:21:47.963Z,8.30
2017-05-11T03:24:14.913Z,8.00
2017-05-11T03:26:42.586Z,7.90
2017-05-11T03:29:09.631Z,7.80
2017-05-11T03:31:37.304Z,7.80
2017-05-11T03:34:04.256Z,7.80
2017-05-11T03:36:31.196Z,7.80
2017-05-11T03:38:58.208Z,7.70
2017-05-11T03:41:25.129Z,7.80
2017-05-11T03:43:52.032Z,7.80
2017-05-11T03:46:19.017Z,7.80
2017-05-11T03:48:46.067Z,8.00
2017-05-11T03:51:13.085Z,8.00
2017-05-11T03:53:40.029Z,8.10
2017-05-11T03:56:07.016Z,8.10
2017-05-11T03:58:33.972Z,8.10
2017-05-11T04:01:00.896Z,8.10
2017-05-11T04:03:27.846Z,8.20
2017-05-11T04:05:54.772Z,8.20
2017-05-11T04:08:21.773Z,8.30
2017-05-11T04:10:48.738Z,8.40
2017-05-11T04:13:15.650Z,8.30
2017-05-11T04:15:43.467Z,8.30
2017-05-11T04:18:10.424Z,8.30
2017-05-11T04:20:37.398Z,8.30
2017-05-11T04:23:05.082Z,8.50
2017-05-11T04:25:32.007Z,8.60
2017-05-11T04:27:58.953Z,8.60
2017-05-11T04:30:25.919Z,8.60
2017-05-11T04:32:52.871Z,8.70
2017-05-11T04:35:19.809Z,8.70
2017-05-11T04:37:46.773Z,8.80
2017-05-11T04:40:13.704Z,9.00
2017-05-11T04:42:40.618Z,9.00
2017-05-11T04:45:08.300Z,9.00
2017-05-11T04:47:35.284Z,9.00
2017-05-11T04:50:02.263Z,9.10
2017-05-11T04:52:29.197Z,9.20
2017-05-11T04:54:56.121Z,9.20
2017-05-11T04:57:23.069Z,9.20
2017-05-11T04:59:50.009Z,9.20
2017-05-11T05:02:16.957Z,9.40
2017-05-11T05:04:43.913Z,9.40
2017-05-11T05:07:10.833Z,9.30
2017-05-11T05:09:37.772Z,9.30
2017-05-11T05:12:04.742Z,9.30
2017-05-11T05:14:31.669Z,9.50
2017-05-11T05:16:58.626Z,9.70
2017-05-11T05:19:25.601Z,9.80
2017-05-11T05:21:52.540Z,9.90
2017-05-11T05:24:19.555Z,9.90
2017-05-11T05:26:46.508Z,10.00
2017-05-11T05:29:13.456Z,10.00
2017-05-11T05:31:40.431Z,10.00
2017-05-11T05:34:08.154Z,10.00
2017-05-11T05:36:35.125Z,9.90
2017-05-11T05:39:02.096Z,9.80
2017-05-11T05:41:29.014Z,9.90
2017-05-11T05:43:55.989Z,10.00
2017-05-11T05:46:23.719Z,9.90
2017-05-11T05:48:50.672Z,10.10
2017-05-11T05:51:17.587Z,10.20
2017-05-11T05:53:44.528Z,10.10
2017-05-11T05:56:11.497Z,10.20
2017-05-11T05:58:38.564Z,10.30
2017-05-11T06:01:06.256Z,10.30
2017-05-11T06:03:33.205Z,10.50
2017-05-11T06:06:00.134Z,10.70
2017-05-11T06:08:27.052Z,10.80
2017-05-11T06:10:54.080Z,11.00
2017-05-11T06:13:21.043Z,11.10
2017-05-11T06:15:48.120Z,11.30
2017-05-11T06:18:15.076Z,11.50
2017-05-11T06:20:42.025Z,11.70
2017-05-11T06:23:08.958Z,11.90
2017-05-11T06:25:35.890Z,12.10
2017-05-11T06:28:02.846Z,12.30
2017-05-11T06:30:29.777Z,12.40
2017-05-11T06:32:57.513Z,12.60
2017-05-11T06:35:24.569Z,12.60
2017-05-11T06:37:51.536Z,12.70
2017-05-11T06:40:19.236Z,12.70
2017-05-11T06:42:46.274Z,12.90
2017-05-11T06:45:13.213Z,13.00
2017-05-11T06:47:40.186Z,13.20
2017-05-11T06:50:07.138Z,13.20
2017-05-11T06:52:34.072Z,13.20
2017-05-11T06:55:01.045Z,13.30
2017-05-11T06:57:28.038Z,13.40
2017-05-11T06:59:54.989Z,13.60
2017-05-11T07:02:22.278Z,13.80
2017-05-11T07:04:49.223Z,13.80
2017-05-11T07:07:16.162Z,13.90
2017-05-11T07:09:43.294Z,13.80
2017-05-11T07:12:10.271Z,13.90
2017-05-11T07:14:37.216Z,14.20
2017-05-11T07:17:04.193Z,14.30
2017-05-11T07:19:31.122Z,14.40
2017-05-11T07:21:58.045Z,14.50
2017-05-11T07:24:24.993Z,14.60
2017-05-11T07:26:51.913Z,14.50
2017-05-11T07:29:18.828Z,14.50
2017-05-11T07:31:45.829Z,14.50
2017-05-11T07:34:12.764Z,14.60
2017-05-11T07:36:39.709Z,14.60
2017-05-11T07:39:06.620Z,14.80
2017-05-11T07:41:33.539Z,14.90
2017-05-11T07:44:00.548Z,15.00
2017-05-11T07:46:27.480Z,15.10
2017-05-11T07:48:54.399Z,15.20
2017-05-11T07:51:21.391Z,15.30
2017-05-11T07:53:48.311Z,15.40
2017-05-11T07:56:15.238Z,15.70
2017-05-11T07:58:42.224Z,16.00
2017-05-11T08:01:09.177Z,16.00
2017-05-11T08:03:36.845Z,16.00
2017-05-11T08:06:04.535Z,16.20
2017-05-11T08:08:31.468Z,16.20
2017-05-11T08:10:58.436Z,16.20
2017-05-11T08:13:25.381Z,16.20
2017-05-11T08:15:52.380Z,16.10
2017-05-11T08:18:19.353Z,16.10
2017-05-11T08:20:46.320Z,16.30
2017-05-11T08:23:13.258Z,16.40
2017-05-11T08:25:40.209Z,16.80
2017-05-11T08:28:07.215Z,17.30
2017-05-11T08:30:34.884Z,17.30
2017-05-11T08:33:02.617Z,17.50
2017-05-11T08:35:29.569Z,18.00
2017-05-11T08:37:56.500Z,18.40
2017-05-11T08:40:23.468Z,18.40
2017-05-11T08:42:50.476Z,19.10
2017-05-11T08:45:17.425Z,19.30
2017-05-11T08:47:44.377Z,20.10
2017-05-11T08:50:11.320Z,21.60
2017-05-11T08:52:38.235Z,22.70
2017-05-11T08:55:05.163Z,23.50
2017-05-11T08:57:37.748Z,23.50
2017-05-11T09:00:04.686Z,23.30
2017-05-11T09:02:31.604Z,23.70
2017-05-11T09:04:59.304Z,24.00
2017-05-11T09:07:26.304Z,24.80
2017-05-11T09:09:53.221Z,25.90
2017-05-11T09:12:20.163Z,26.40
2017-05-11T09:14:47.136Z,26.80
2017-05-11T09:17:14.061Z,27.60
2017-05-11T09:19:40.993Z,28.00
2017-05-11T09:22:07.973Z,28.10
2017-05-11T09:24:34.913Z,27.90
2017-05-11T09:27:01.845Z,28.30
2017-05-11T09:29:28.809Z,28.50
2017-05-11T09:31:56.465Z,28.50
2017-05-11T09:34:23.437Z,28.50
2017-05-11T09:36:50.371Z,28.30
2017-05-11T09:39:18.048Z,28.20
2017-05-11T09:41:45.012Z,28.20
2017-05-11T09:44:12.001Z,27.90
2017-05-11T09:46:38.956Z,28.30
2017-05-11T09:49:06.636Z,27.50
2017-05-11T09:51:33.592Z,27.30
2017-05-11T09:54:00.525Z,26.80
2017-05-11T09:56:27.472Z,26.80
2017-05-11T09:58:54.481Z,26.90
2017-05-11T10:01:21.409Z,26.80
2017-05-11T10:03:48.346Z,27.10
2017-05-11T10:06:15.326Z,27.10
2017-05-11T10:08:42.256Z,27.20
2017-05-11T10:11:09.210Z,27.70
2017-05-11T10:13:36.179Z,27.90
2017-05-11T10:16:03.942Z,28.00
2017-05-11T10:18:31.616Z,27.90
2017-05-11T10:20:58.545Z,27.50
2017-05-11T10:23:26.232Z,27.40
2017-05-11T10:25:53.229Z,26.90
2017-05-11T10:28:20.189Z,26.60
2017-05-11T10:30:47.862Z,26.20
2017-05-11T10:38:58.921Z,22.70
2017-05-11T10:41:25.846Z,21.80
2017-05-11T10:43:52.785Z,21.00
2017-05-11T10:46:19.780Z,21.20
2017-05-11T10:48:46.712Z,21.00
2017-05-11T10:51:14.551Z,21.10
2017-05-11T10:53:41.506Z,21.10
2017-05-11T10:56:08.423Z,21.10
2017-05-11T10:58:35.344Z,21.50
2017-05-11T11:01:03.125Z,21.80
2017-05-11T11:03:30.058Z,22.40
2017-05-11T11:05:57.720Z,23.50
2017-05-11T11:08:25.697Z,24.10
2017-05-11T11:10:52.635Z,24.50
2017-05-11T11:13:20.338Z,25.10
2017-05-11T11:15:47.382Z,24.30
2017-05-11T11:18:14.344Z,23.70
2017-05-11T11:20:41.289Z,24.20
2017-05-11T11:23:08.265Z,22.90
2017-05-11T11:25:35.204Z,23.00
2017-05-11T11:28:02.122Z,22.90
2017-05-11T11:30:29.076Z,22.60
2017-05-11T11:32:55.999Z,22.80
2017-05-11T11:35:22.949Z,23.10
2017-05-11T11:37:49.908Z,22.80
2017-05-11T11:40:16.831Z,22.40
2017-05-11T11:42:43.761Z,21.70
2017-05-11T11:45:10.721Z,21.70
2017-05-11T11:47:37.639Z,22.10
2017-05-11T11:50:04.582Z,22.30
2017-05-11T11:52:31.553Z,21.30
2017-05-11T11:54:58.488Z,21.60
2017-05-11T11:57:25.412Z,21.70
2017-05-11T11:59:52.393Z,22.10
2017-05-11T12:02:19.340Z,22.70
2017-05-11T12:04:46.257Z,22.40
2017-05-11T12:07:13.220Z,22.50
2017-05-11T12:09:40.155Z,22.00
2017-05-11T12:12:07.096Z,21.80
2017-05-11T12:14:34.053Z,22.10
2017-05-11T12:17:01.268Z,21.60
2017-05-11T12:19:28.932Z,21.50
2017-05-11T12:21:55.922Z,21.10
2017-05-11T12:24:22.841Z,20.90
2017-05-11T12:26:49.756Z,20.60
2017-05-11T12:29:17.465Z,20.70
2017-05-11T12:31:44.398Z,21.20
2017-05-11T12:34:11.347Z,21.60
2017-05-11T12:36:38.309Z,21.80
2017-05-11T12:39:05.236Z,21.80
2017-05-11T12:41:32.203Z,21.60
2017-05-11T12:43:59.120Z,22.10
2017-05-11T12:46:26.119Z,22.50
2017-05-11T12:48:53.069Z,22.60
2017-05-11T12:51:19.993Z,22.70
2017-05-11T12:53:46.953Z,23.00
2017-05-11T12:56:13.926Z,22.80
2017-05-11T12:58:40.891Z,22.60
2017-05-11T13:01:07.832Z,22.80
2017-05-11T13:03:34.785Z,23.00
2017-05-11T13:06:01.709Z,23.00
2017-05-11T13:08:28.642Z,23.00
2017-05-11T13:10:56.379Z,23.00
2017-05-11T13:13:23.406Z,22.80
2017-05-11T13:15:50.368Z,22.70
2017-05-11T13:18:17.341Z,22.40
2017-05-11T13:20:45.022Z,22.50
2017-05-11T13:23:12.033Z,22.60
2017-05-11T13:25:39.061Z,22.60
2017-05-11T13:28:06.001Z,22.80
2017-05-11T13:30:32.952Z,22.30
2017-05-11T13:32:59.941Z,22.50
2017-05-11T13:35:26.890Z,22.80
2017-05-11T13:37:53.825Z,22.90
2017-05-11T13:40:21.521Z,23.10
2017-05-11T13:42:48.498Z,23.20
2017-05-11T13:45:15.443Z,23.20
2017-05-11T13:47:42.373Z,23.10
2017-05-11T13:50:09.380Z,23.20
2017-05-11T13:52:36.314Z,23.30
2017-05-11T13:55:03.237Z,23.30
2017-05-11T13:57:30.302Z,23.30
2017-05-11T13:59:57.994Z,23.10
2017-05-11T14:02:24.924Z,23.00
2017-05-11T14:04:51.901Z,22.90
2017-05-11T14:07:18.853Z,22.90
2017-05-11T14:09:45.799Z,23.00
2017-05-11T14:12:12.806Z,23.10
2017-05-11T14:14:39.889Z,23.10
2017-05-11T14:17:06.820Z,23.10
2017-05-11T14:19:33.789Z,22.90
2017-05-11T14:22:00.728Z,22.80
2017-05-11T14:24:27.678Z,22.70
2017-05-11T14:26:54.669Z,22.70
2017-05-11T14:29:21.608Z,22.50
2017-05-11T14:31:49.282Z,22.40
2017-05-11T14:34:16.247Z,22.50
2017-05-11T14:36:43.190Z,22.50
2017-05-11T14:39:10.116Z,22.60
2017-05-11T14:41:37.223Z,22.50
2017-05-11T14:44:04.197Z,22.30
2017-05-11T14:46:31.878Z,22.20
2017-05-11T14:48:59.120Z,22.10
2017-05-11T14:51:26.055Z,21.80
2017-05-11T14:53:53.094Z,21.70
2017-05-11T14:56:20.797Z,21.60
2017-05-11T14:58:47.760Z,21.40
2017-05-11T15:01:14.707Z,21.40
2017-05-11T15:03:41.686Z,21.50
2017-05-11T15:06:09.379Z,21.40
2017-05-11T15:08:36.622Z,21.40
2017-05-11T15:11:03.568Z,21.30
2017-05-11T15:13:30.560Z,21.20
2017-05-11T15:15:57.500Z,20.90
2017-05-11T15:18:24.448Z,20.70
2017-05-11T15:20:51.469Z,20.40
2017-05-11T15:23:18.430Z,20.30
2017-05-11T15:25:45.372Z,20.20
2017-05-11T15:28:12.342Z,20.10
2017-05-11T15:30:39.333Z,20.10
2017-05-11T15:33:06.303Z,20.10
2017-05-11T15:35:33.272Z,20.20
2017-05-11T15:38:00.266Z,20.10
2017-05-11T15:40:27.211Z,19.90
2017-05-11T15:42:54.176Z,19.70
2017-05-11T15:45:21.156Z,19.70
2017-05-11T15:47:48.136Z,19.70
2017-05-11T15:50:15.870Z,19.70
2017-05-11T15:52:42.797Z,19.80
2017-05-11T15:55:09.773Z,19.90
2017-05-11T15:57:36.763Z,19.90
2017-05-11T16:00:03.746Z,19.80
2017-05-11T16:02:30.715Z,19.80
2017-05-11T16:04:57.674Z,19.60
2017-05-11T16:07:24.600Z,19.50
2017-05-11T16:09:51.605Z,19.40
2017-05-11T16:12:18.675Z,19.30
2017-05-11T16:14:45.601Z,19.10
2017-05-11T16:17:12.557Z,18.90
2017-05-11T16:19:39.519Z,18.50
2017-05-11T16:22:06.457Z,18.00
2017-05-11T16:24:33.463Z,18.00
2017-05-11T16:27:00.403Z,18.00
2017-05-11T16:29:27.353Z,18.10
2017-05-11T16:31:54.728Z,18.30
2017-05-11T16:34:21.669Z,18.60
2017-05-11T16:36:48.611Z,18.70
2017-05-11T16:39:15.592Z,18.70
2017-05-11T16:41:42.545Z,18.70
2017-05-11T16:44:09.475Z,18.80
2017-05-11T16:46:36.525Z,18.70
2017-05-11T16:49:03.483Z,18.80
2017-05-11T16:51:31.172Z,18.80
2017-05-11T16:53:58.141Z,18.80
2017-05-11T16:56:25.104Z,18.80
2017-05-11T16:58:52.043Z,18.70
2017-05-11T17:01:19.002Z,18.70
2017-05-11T17:03:45.932Z,18.70
2017-05-11T17:06:12.869Z,18.70
2017-05-11T17:08:39.848Z,18.70
2017-05-11T17:11:06.813Z,18.70
2017-05-11T17:13:34.503Z,18.70
2017-05-11T17:16:01.483Z,18.60
2017-05-11T17:18:28.421Z,18.60
2017-05-11T17:20:55.363Z,18.60
2017-05-11T17:23:22.336Z,18.50
2017-05-11T17:25:49.342Z,18.50
2017-05-11T17:28:16.305Z,18.40
2017-05-11T17:30:45.471Z,18.40
2017-05-11T17:33:12.413Z,18.40
2017-05-11T17:35:39.348Z,18.30
2017-05-11T17:38:06.331Z,18.30
2017-05-11T17:40:33.268Z,18.00
2017-05-11T17:43:00.236Z,18.00
2017-05-11T17:45:27.200Z,17.90
2017-05-11T17:47:54.932Z,17.90
2017-05-11T17:50:21.901Z,18.00
2017-05-11T17:52:48.874Z,18.00
2017-05-11T17:55:15.816Z,17.70
2017-05-11T17:57:42.795Z,17.70
2017-05-11T18:00:09.752Z,17.70
2017-05-11T18:02:36.816Z,17.10
2017-05-11T18:05:03.792Z,17.20
2017-05-11T18:07:30.738Z,16.90
2017-05-11T18:09:57.748Z,17.10
2017-05-11T18:12:24.793Z,17.20
2017-05-11T18:14:51.747Z,17.40
2017-05-11T18:17:18.673Z,17.40
2017-05-11T18:19:45.713Z,17.40
2017-05-11T18:22:12.664Z,17.30
2017-05-11T18:24:39.655Z,16.90
2017-05-11T18:27:07.378Z,17.00
2017-05-11T18:29:34.330Z,17.10
2017-05-11T18:32:01.301Z,17.00
2017-05-11T18:34:29.006Z,17.00
2017-05-11T18:36:55.981Z,17.00
2017-05-11T18:39:22.937Z,17.00
2017-05-11T18:41:49.855Z,17.00
2017-05-11T18:44:16.833Z,16.70
2017-05-11T18:46:44.625Z,16.70
2017-05-11T18:49:11.596Z,16.60
2017-05-11T18:51:38.567Z,16.70
2017-05-11T18:54:05.523Z,16.50
2017-05-11T18:56:32.462Z,16.60
2017-05-11T18:58:59.457Z,16.70
2017-05-11T19:01:26.442Z,16.70
2017-05-11T19:03:53.416Z,16.70
2017-05-11T19:06:20.349Z,16.60
2017-05-11T19:08:47.332Z,16.40
2017-05-11T19:11:14.280Z,16.30
2017-05-11T19:13:41.233Z,16.20
2017-05-11T19:16:08.156Z,16.10
2017-05-11T19:18:35.844Z,16.10
2017-05-11T19:21:02.790Z,16.00
2017-05-11T19:23:29.751Z,16.00
2017-05-11T19:25:56.756Z,16.00
2017-05-11T19:28:24.424Z,15.90
2017-05-11T19:30:51.393Z,15.80
2017-05-11T19:33:18.313Z,15.70
2017-05-11T19:35:45.269Z,15.60
2017-05-11T19:38:12.236Z,15.40
2017-05-11T19:40:39.186Z,15.30
2017-05-11T19:43:06.129Z,15.00
2017-05-11T19:45:33.085Z,14.90
2017-05-11T19:48:00.028Z,14.70
2017-05-11T19:50:26.996Z,14.60
2017-05-11T19:52:54.020Z,14.80
2017-05-11T19:55:20.985Z,15.00
2017-05-11T19:57:47.985Z,15.10
2017-05-11T20:00:14.916Z,14.90
2017-05-11T20:02:41.864Z,14.80
2017-05-11T20:05:08.852Z,14.70
2017-05-11T20:07:35.797Z,14.80
2017-05-11T20:10:02.741Z,14.70
2017-05-11T20:12:29.698Z,14.80
2017-05-11T20:14:57.039Z,14.80
2017-05-11T20:17:23.987Z,14.70
2017-05-11T20:19:50.948Z,14.70
2017-05-11T20:22:17.897Z,14.60
2017-05-11T20:24:45.568Z,14.40
2017-05-11T20:27:13.266Z,14.30
2017-05-11T20:29:40.262Z,14.30
2017-05-11T20:32:07.189Z,14.30
2017-05-11T20:34:34.144Z,14.30
2017-05-11T20:37:01.115Z,14.30
2017-05-11T20:39:28.788Z,14.20
2017-05-11T20:41:55.753Z,14.30
2017-05-11T20:44:22.661Z,14.10
2017-05-11T20:46:49.621Z,14.00
2017-05-11T20:49:16.545Z,14.20
2017-05-11T20:51:43.474Z,14.20
2017-05-11T20:54:10.432Z,14.20
2017-05-11T20:56:38.097Z,14.30
2017-05-11T20:59:05.775Z,14.40
2017-05-11T21:01:32.752Z,14.40
2017-05-11T21:03:59.714Z,14.40
2017-05-11T21:06:26.651Z,14.30
2017-05-11T21:08:53.608Z,14.30
2017-05-11T21:11:20.535Z,14.20
2017-05-11T21:13:47.510Z,14.00
2017-05-11T21:16:14.447Z,14.00
2017-05-11T21:18:41.376Z,13.90
2017-05-11T21:21:08.342Z,13.90
2017-05-11T21:23:36.004Z,13.80
2017-05-11T21:26:02.968Z,13.70
2017-05-11T21:28:30.631Z,13.70
2017-05-11T21:30:58.296Z,13.90
2017-05-11T21:33:26.032Z,13.90
2017-05-11T21:35:52.971Z,13.80
2017-05-11T21:38:19.918Z,13.80
2017-05-11T21:40:46.894Z,13.60
2017-05-11T21:43:14.609Z,13.40
2017-05-11T21:45:41.537Z,13.60
2017-05-11T21:48:08.514Z,13.60
2017-05-11T21:50:35.440Z,13.60
2017-05-11T21:53:02.373Z,13.60
2017-05-11T21:55:29.350Z,13.60
2017-05-11T21:57:56.278Z,13.70
2017-05-11T22:00:23.208Z,13.80
2017-05-11T22:02:50.160Z,13.80
2017-05-11T22:05:17.125Z,13.80
2017-05-11T22:07:44.124Z,13.80
2017-05-11T22:10:11.065Z,13.70
2017-05-11T22:12:37.989Z,13.60
2017-05-11T22:15:04.963Z,13.60
2017-05-11T22:17:31.872Z,13.60
2017-05-11T22:19:59.533Z,13.50
2017-05-11T22:22:26.483Z,13.40
2017-05-11T22:24:54.141Z,13.40
2017-05-11T22:27:21.799Z,13.50
2017-05-11T22:29:49.501Z,13.40
2017-05-11T22:32:16.448Z,13.30
2017-05-11T22:34:43.368Z,13.20
2017-05-11T22:37:10.305Z,13.20
2017-05-11T22:39:38.011Z,13.00
2017-05-11T22:42:04.945Z,13.00
2017-05-11T22:44:31.862Z,12.90
2017-05-11T22:46:59.560Z,12.90
2017-05-11T22:49:26.598Z,12.80
2017-05-11T22:51:53.515Z,12.80
2017-05-11T22:54:21.187Z,12.80
2017-05-11T22:56:48.117Z,12.70
2017-05-11T22:59:16.202Z,12.70
2017-05-11T23:01:43.121Z,12.70
2017-05-11T23:04:10.781Z,12.70
2017-05-11T23:06:37.816Z,12.70
2017-05-11T23:09:04.746Z,12.60
2017-05-11T23:11:31.670Z,12.60
2017-05-11T23:13:58.603Z,12.70
2017-05-11T23:16:25.523Z,12.50
2017-05-11T23:18:52.482Z,12.40
2017-05-11T23:21:19.411Z,12.50
2017-05-11T23:23:46.324Z,12.30
2017-05-11T23:26:13.280Z,12.40
2017-05-11T23:28:40.284Z,12.10
2017-05-11T23:31:07.206Z,11.90
2017-05-11T23:33:34.169Z,11.80
2017-05-11T23:36:01.089Z,11.90
2017-05-11T23:38:28.026Z,11.90
2017-05-11T23:40:54.991Z,12.00
2017-05-11T23:43:21.902Z,12.20
2017-05-11T23:45:49.562Z,12.30
2017-05-11T23:48:16.505Z,12.40
2017-05-11T23:50:44.161Z,12.40
2017-05-11T23:53:11.837Z,12.40
2017-05-11T23:55:39.514Z,12.50
2017-05-11T23:58:06.437Z,12.50
